createdAt,value
2023-04-27T00:00:17.340Z,101906.81
2023-04-27T00:05:20.497Z,101910.25
2023-04-27T00:10:22.042Z,101918.59
2023-04-27T00:15:23.590Z,101932.06
2023-04-27T00:20:25.278Z,101924.00
2023-04-27T00:25:26.709Z,101927.34
2023-04-27T00:30:28.237Z,101927.69
2023-04-27T00:35:29.679Z,101925.47
2023-04-27T00:40:31.252Z,101926.84
2023-04-27T00:45:45.992Z,101928.47
2023-04-27T00:50:47.667Z,101925.19
2023-04-27T00:55:49.135Z,101924.78
2023-04-27T01:00:51.178Z,101932.09
2023-04-27T01:05:53.227Z,101927.66
2023-04-27T01:10:54.639Z,101934.75
2023-04-27T01:15:56.120Z,101920.34
2023-04-27T01:20:57.572Z,101914.94
2023-04-27T01:25:58.979Z,101925.00
2023-04-27T01:31:00.561Z,101934.38
2023-04-27T01:36:02.136Z,101936.22
2023-04-27T01:41:08.963Z,101935.44
2023-04-27T01:46:14.489Z,101933.69
2023-04-27T01:51:16.010Z,101931.59
2023-04-27T01:56:17.379Z,101924.63
2023-04-27T02:01:18.778Z,101924.28
2023-04-27T02:06:20.405Z,101913.72
2023-04-27T02:11:22.195Z,101918.16
2023-04-27T02:16:23.714Z,101927.47
2023-04-27T02:21:25.205Z,101923.97
2023-04-27T02:26:29.519Z,101921.44
2023-04-27T02:31:31.024Z,101931.34
2023-04-27T02:36:32.777Z,101923.94
2023-04-27T02:41:34.228Z,101917.41
2023-04-27T02:46:35.853Z,101919.38
2023-04-27T02:51:37.288Z,101914.88
2023-04-27T02:56:39.210Z,101917.50
2023-04-27T03:01:40.802Z,101907.34
2023-04-27T03:06:42.220Z,101907.59
2023-04-27T03:11:43.689Z,101909.59
2023-04-27T03:16:45.441Z,101915.75
2023-04-27T03:21:47.281Z,101921.31
2023-04-27T03:26:48.745Z,101924.88
2023-04-27T03:31:50.320Z,101924.66
2023-04-27T03:36:51.739Z,101932.66
2023-04-27T03:41:53.215Z,101929.59
2023-04-27T03:46:54.645Z,101929.44
2023-04-27T03:51:56.049Z,101931.16
2023-04-27T03:56:57.497Z,101931.25
2023-04-27T04:02:01.183Z,101934.78
2023-04-27T04:07:03.117Z,101935.78
2023-04-27T04:12:04.959Z,101937.44
2023-04-27T04:17:08.826Z,101938.97
2023-04-27T04:22:10.298Z,101934.28
2023-04-27T04:27:11.730Z,101933.78
2023-04-27T04:32:17.607Z,101933.25
2023-04-27T04:37:19.048Z,101933.41
2023-04-27T04:42:20.784Z,101944.72
2023-04-27T04:47:22.297Z,101942.69
2023-04-27T04:52:23.780Z,101942.16
2023-04-27T04:57:25.245Z,101946.59
2023-04-27T05:02:26.750Z,101950.38
2023-04-27T05:07:28.251Z,101947.69
2023-04-27T05:12:29.761Z,101948.16
2023-04-27T05:17:31.214Z,101950.66
2023-04-27T05:22:32.624Z,101949.56
2023-04-27T05:27:34.043Z,101941.59
2023-04-27T05:32:37.371Z,101949.69
2023-04-27T05:37:38.914Z,101940.50
2023-04-27T05:42:40.333Z,101955.41
2023-04-27T05:47:41.968Z,101956.47
2023-04-27T05:52:43.476Z,101956.81
2023-04-27T05:57:47.615Z,101955.19
2023-04-27T06:02:49.387Z,101947.84
2023-04-27T06:07:51.009Z,101963.34
2023-04-27T06:12:52.830Z,101957.31
2023-04-27T06:17:54.328Z,101962.41
2023-04-27T06:22:56.974Z,101964.19
2023-04-27T06:27:58.649Z,101960.44
2023-04-27T06:33:00.179Z,101970.22
2023-04-27T06:38:01.851Z,101963.88
2023-04-27T06:43:03.487Z,101963.75
2023-04-27T06:48:05.478Z,101950.22
2023-04-27T06:53:07.058Z,101941.47
2023-04-27T06:58:08.580Z,101933.94
2023-04-27T07:03:10.181Z,101920.75
2023-04-27T07:08:12.940Z,101917.66
2023-04-27T07:13:14.533Z,101922.91
2023-04-27T07:18:16.178Z,101918.50
2023-04-27T07:23:17.641Z,101918.19
2023-04-27T07:28:19.032Z,101922.78
2023-04-27T07:33:20.520Z,101928.53
2023-04-27T07:38:22.287Z,101929.13
2023-04-27T07:43:25.687Z,101917.38
2023-04-27T07:48:28.780Z,101918.22
2023-04-27T07:53:30.294Z,101913.22
2023-04-27T07:58:31.740Z,101917.44
2023-04-27T08:03:33.381Z,101910.47
2023-04-27T08:08:35.247Z,101910.78
2023-04-27T08:13:37.054Z,101912.56
2023-04-27T08:18:38.701Z,101916.16
2023-04-27T08:23:40.147Z,101911.19
2023-04-27T08:28:41.654Z,101915.25
2023-04-27T08:33:43.063Z,101916.19
2023-04-27T08:38:44.600Z,101919.47
2023-04-27T08:43:46.042Z,101907.31
2023-04-27T08:48:50.444Z,101900.97
2023-04-27T08:53:55.212Z,101899.53
2023-04-27T08:58:57.664Z,101898.28
2023-04-27T09:04:01.474Z,101902.53
2023-04-27T09:09:04.082Z,101915.38
2023-04-27T09:14:20.691Z,101924.66
2023-04-27T09:19:26.934Z,101941.63
2023-04-27T09:24:28.394Z,101934.75
2023-04-27T09:29:37.205Z,101939.97
2023-04-27T09:34:42.644Z,101931.72
2023-04-27T09:39:47.502Z,101927.31
2023-04-27T09:44:56.293Z,101916.00
2023-04-27T09:50:02.286Z,101908.47
2023-04-27T09:55:14.326Z,101909.13
2023-04-27T10:00:30.971Z,101905.94
2023-04-27T10:06:00.326Z,101900.97
2023-04-27T10:11:12.810Z,101891.22
2023-04-27T10:17:00.994Z,101899.22
2023-04-27T10:22:08.182Z,101900.69
2023-04-27T10:27:12.463Z,101904.94
2023-04-27T10:32:26.615Z,101907.75
2023-04-27T10:37:39.828Z,101903.31
2023-04-27T10:42:42.190Z,101896.66
2023-04-27T10:47:48.205Z,101887.03
2023-04-27T10:52:49.800Z,101903.34
2023-04-27T10:57:53.342Z,101895.13
2023-04-27T11:02:58.115Z,101888.41
2023-04-27T11:08:10.734Z,101879.94
2023-04-27T11:13:14.897Z,101870.81
2023-04-27T11:18:18.911Z,101874.84
2023-04-27T11:23:38.636Z,101857.81
2023-04-27T11:28:41.776Z,101840.44
2023-04-27T11:33:49.162Z,101831.56
2023-04-27T11:38:50.887Z,101825.56
2023-04-27T11:43:53.625Z,101831.31
2023-04-27T11:49:04.198Z,101819.44
2023-04-27T11:54:09.255Z,101827.94
2023-04-27T11:59:21.708Z,101830.22
2023-04-27T12:04:23.636Z,101819.47
2023-04-27T12:09:25.355Z,101808.38
2023-04-27T12:14:27.104Z,101811.16
2023-04-27T12:19:28.731Z,101803.53
2023-04-27T12:24:30.329Z,101803.72
2023-04-27T12:29:32.171Z,101806.00
2023-04-27T12:34:34.496Z,101794.16
2023-04-27T12:39:36.250Z,101802.28
2023-04-27T12:44:37.678Z,101786.50
2023-04-27T12:49:39.100Z,101783.00
2023-04-27T12:54:40.518Z,101767.78
2023-04-27T12:59:41.943Z,101764.63
2023-04-27T13:04:43.630Z,101761.22
2023-04-27T13:09:45.376Z,101762.47
2023-04-27T13:14:46.857Z,101765.28
2023-04-27T13:19:48.317Z,101771.91
2023-04-27T13:24:49.789Z,101761.41
2023-04-27T13:29:51.563Z,101766.97
2023-04-27T13:34:52.940Z,101764.22
2023-04-27T13:39:54.499Z,101745.13
2023-04-27T13:44:56.981Z,101736.66
2023-04-27T13:49:58.629Z,101731.47
2023-04-27T13:55:00.050Z,101727.19
2023-04-27T14:00:02.101Z,101720.69
2023-04-27T14:05:05.194Z,101719.47
2023-04-27T14:10:07.429Z,101725.50
2023-04-27T14:15:09.460Z,101713.09
2023-04-27T14:20:11.016Z,101716.34
2023-04-27T14:25:12.632Z,101714.53
2023-04-27T14:30:14.209Z,101698.06
2023-04-27T14:35:15.706Z,101695.59
2023-04-27T14:40:17.287Z,101689.31
2023-04-27T14:45:18.962Z,101691.19
2023-04-27T14:50:20.469Z,101690.31
2023-04-27T14:55:21.918Z,101676.78
2023-04-27T15:00:23.455Z,101675.41
2023-04-27T15:05:25.178Z,101671.75
2023-04-27T15:10:26.562Z,101660.84
2023-04-27T15:15:28.199Z,101665.31
2023-04-27T15:20:29.625Z,101654.84
2023-04-27T15:25:31.201Z,101659.38
2023-04-27T15:30:34.102Z,101656.66
2023-04-27T15:35:37.540Z,101642.63
2023-04-27T15:40:40.135Z,101653.63
2023-04-27T15:45:41.897Z,101653.59
2023-04-27T15:50:44.786Z,101645.81
2023-04-27T15:55:46.261Z,101634.25
2023-04-27T16:00:47.730Z,101624.00
2023-04-27T16:05:50.830Z,101625.13
2023-04-27T16:10:52.367Z,101622.41
2023-04-27T16:15:53.986Z,101614.09
2023-04-27T16:20:55.518Z,101607.91
2023-04-27T16:25:57.120Z,101591.06
2023-04-27T16:30:59.033Z,101586.63
2023-04-27T16:36:00.643Z,101579.69
2023-04-27T16:41:02.122Z,101584.88
2023-04-27T16:46:03.663Z,101578.66
2023-04-27T16:51:05.250Z,101570.09
2023-04-27T16:56:07.365Z,101562.13
2023-04-27T17:01:08.801Z,101548.06
2023-04-27T17:06:10.353Z,101539.69
2023-04-27T17:11:14.619Z,101532.50
2023-04-27T17:16:17.305Z,101545.75
2023-04-27T17:21:19.409Z,101548.25
2023-04-27T17:31:24.346Z,101539.03
2023-04-27T17:36:26.519Z,101548.56
2023-04-27T17:41:28.570Z,101556.13
2023-04-27T17:46:30.052Z,101559.47
2023-04-27T17:51:33.047Z,101544.47
2023-04-27T17:56:34.517Z,101553.69
2023-04-27T18:01:36.368Z,101547.44
2023-04-27T18:06:37.760Z,101555.09
2023-04-27T18:11:39.206Z,101547.06
2023-04-27T18:16:40.761Z,101541.91
2023-04-27T18:21:42.439Z,101538.19
2023-04-27T18:26:43.820Z,101526.81
2023-04-27T18:31:46.122Z,101526.56
2023-04-27T18:36:51.835Z,101534.16
2023-04-27T18:41:53.656Z,101539.22
2023-04-27T18:46:55.084Z,101538.16
2023-04-27T18:51:56.430Z,101548.41
2023-04-27T18:56:58.360Z,101548.31
2023-04-27T19:02:00.005Z,101542.88
2023-04-27T19:07:02.350Z,101537.56
2023-04-27T19:12:04.045Z,101540.00
2023-04-27T19:17:06.623Z,101537.06
2023-04-27T19:22:09.662Z,101537.84
2023-04-27T19:27:11.816Z,101536.81
2023-04-27T19:32:13.567Z,101526.38
2023-04-27T19:37:15.157Z,101527.88
2023-04-27T19:42:22.471Z,101529.59
2023-04-27T19:47:26.455Z,101529.47
2023-04-27T19:52:27.969Z,101520.06
2023-04-27T19:57:34.397Z,101519.84
2023-04-27T20:02:37.831Z,101511.28
2023-04-27T20:07:42.765Z,101522.31
2023-04-27T20:12:55.166Z,101518.78
2023-04-27T20:17:58.544Z,101512.81
2023-04-27T20:23:00.387Z,101502.25
2023-04-27T20:28:01.928Z,101500.63
2023-04-27T20:33:03.879Z,101506.47
2023-04-27T20:38:05.722Z,101482.47
2023-04-27T20:43:10.446Z,101477.19
2023-04-27T20:48:14.498Z,101465.09
2023-04-27T20:53:15.905Z,101459.22
2023-04-27T20:58:20.525Z,101454.81
2023-04-27T21:03:22.412Z,101457.16
2023-04-27T21:08:24.571Z,101444.09
2023-04-27T21:13:26.256Z,101443.28
2023-04-27T21:18:30.426Z,101441.38
2023-04-27T21:23:44.748Z,101430.66
2023-04-27T21:28:51.240Z,101414.41
2023-04-27T21:33:53.094Z,101405.19
2023-04-27T21:38:54.584Z,101395.47
2023-04-27T21:43:56.962Z,101387.03
2023-04-27T21:48:58.454Z,101378.22
2023-04-27T21:54:01.319Z,101372.34
2023-04-27T21:59:02.839Z,101357.75
2023-04-27T22:04:06.909Z,101362.84
2023-04-27T22:09:08.859Z,101344.09
2023-04-27T22:14:10.624Z,101339.47
2023-04-27T22:19:12.862Z,101337.78
2023-04-27T22:24:14.522Z,101332.50
2023-04-27T22:29:16.251Z,101335.94
2023-04-27T22:34:17.941Z,101327.56
2023-04-27T22:39:19.561Z,101316.94
2023-04-27T22:44:21.129Z,101324.75
2023-04-27T22:49:22.869Z,101322.06
2023-04-27T22:54:24.866Z,101315.94
2023-04-27T22:59:26.557Z,101303.88
2023-04-27T23:04:28.187Z,101295.28
2023-04-27T23:09:29.654Z,101287.50
2023-04-27T23:14:31.405Z,101287.41
2023-04-27T23:19:33.294Z,101290.81
2023-04-27T23:24:34.690Z,101281.38
2023-04-27T23:29:36.045Z,101278.66
2023-04-27T23:34:37.486Z,101269.09
2023-04-27T23:39:38.959Z,101255.22
2023-04-27T23:44:40.414Z,101245.81
2023-04-27T23:49:44.680Z,101234.56
2023-04-27T23:54:46.258Z,101228.28
2023-04-27T23:59:47.661Z,101208.38
